KCKV/CKV METAR and TAF weather

Enter ICAO airport designator
Station Type Date Time Source
KCKV METAR 2021/07/29 17:52 UTC NOAA

KCKV 291752Z AUTO 24007KT 10SM SCT041 32/24 A3002 RMK AO2 SLP160 T03220239 10322 20228 58019


Station Type Date Time Source
KCKV Decoded METAR 2021/07/29 17:52 UTC NOAA

CLARKSVILLE OUTLAW FIELD, TN, United States (KCKV) 36-37N 87-25W 165M
Jul 29, 2021 - 01:52 PM EDT / 2021.07.29 1752 UTC
Wind: from the WSW (240 degrees) at 8 MPH (7 KT):0
Visibility: 10 mile(s):0
Sky conditions: partly cloudy
Temperature: 90.0 F (32.2 C)
Heat index: 100.2 F (37.9 C):1
Dew Point: 75.0 F (23.9 C)
Relative Humidity: 61%
Pressure (altimeter): 30.02 in. Hg (1016 hPa)
Pressure tendency: 0.06 inches (1.9 hPa) lower than three hours ago
ob: KCKV 291752Z AUTO 24007KT 10SM SCT041 32/24 A3002 RMK AO2 SLP160 T03220239 10322 20228 58019
cycle: 18

Station Type Date Time Source
KCKV TAF 2021/07/29 18:42 UTC NOAA

TAF KCKV 291739Z 2918/3018 27005KT P6SM SKC

Example: see airport list